Fort McPherson, Canada
Current Conditions -  °F | °C
As of 10:12 AM on Friday 24 Oct 2014 (Local Time) from CYKD Reporting Station
Broken Clouds Broken Clouds  
Wind Chill: 12°   Ceiling: 4500
Heat Index: 12°   Visibility: 15mi
Dew Point:   Wind: 3mph
Humidity: 85%   Direction: 160°SSE
Pressure: 29.82"   Gusts: NA
Location:  67.44°N, 134.88°W
Report Text: CYKD 241612Z 16003KT 15SM SCT030 BKN045 M11/M13 A2982 RMK SC4SC3 ST TR SLP099
Loading
Personal Weather Stations






























Interactive Weather Map
Tropical Storm Tracking
New forecast layout! Learn more

10-Day Weather Forecast

Advertisements
Track Severe Weather on mobile